Darstellungsparameter: Aktuell verwendete Einstellungen:
Skalierung der Graphiken ... ?
xyx+y,   Skalierungsfaktor:      Skalierung: Modus: x, Faktor: 1
Darstellungszeitraum ... ?
Vom - - bis: - -   Zeitraum: 29.07.2009 - 29.07.2009
Min/Max/Avg-Anzeige ... ?
Zeige MMA aktuell
Zeige MMA Monat
Zeige MMA alles
Zeige --A aktuell
Zeige --A Monat
Zeige --A alles
Keine MMA-Anzeige
MMA:
Keine MMA-Graphiken
MMA-Basis: 29.07.2009 - 29.07.2009
Quicknavigation für Darstellung... ?
Tage:      1T, 2T, 3T, 5T -1T -2T -3T -5T +1T +2T +3T +5T
Wochen: 1W, 2W, 3W -1W -2W -3W +1W +2W +3W
Monate: 1M, 3M, 6M -1M -3M -6M +1M +3M +6M
Jahre:    1J, 3J, 5J, 10J -1J -3J -5J -10J +1J +3J +5J +10J
Nutze für die Darstellung ... ?
Originaldaten oder Mittelwerte auf ...
Stundenbasis Tagesbasis Wochenbasis
Monatsbasis Jahresbasis      Datenbasis: Original-Daten
Darstellen als:
Statistik (Auto) Statistik J:M      Darstellung:
Zur Graphik,    zurück zur Übersicht aller Sensoren.
 
Tabellarische Datenbersicht: ?
 
Sensor: Nr:Datum:Temp:Feuchte:Taupunkt:
Aussen-T/F 1 29-07-2009 00:00:21 17.5 C 50 % 6.97 C
2 29-07-2009 00:12:21 17.2 C 51 % 6.98 C
3 29-07-2009 00:24:21 17.1 C 53 % 7.45 C
4 29-07-2009 00:36:21 16.9 C 54 % 7.54 C
5 29-07-2009 00:48:21 16.6 C 56 % 7.8 C
6 29-07-2009 01:00:21 16.4 C 57 % 7.87 C
7 29-07-2009 01:12:22 16.1 C 59 % 8.09 C
8 29-07-2009 01:24:22 16 C 60 % 8.25 C
9 29-07-2009 01:36:22 15.8 C 62 % 8.54 C
10 29-07-2009 01:48:22 15.5 C 62 % 8.26 C
11 29-07-2009 02:00:22 15.3 C 64 % 8.54 C
12 29-07-2009 02:12:22 15.1 C 64 % 8.35 C
13 29-07-2009 02:24:22 15 C 66 % 8.71 C
14 29-07-2009 02:36:22 15 C 67 % 8.93 C
15 29-07-2009 02:48:22 14.7 C 68 % 8.86 C
16 29-07-2009 03:00:22 14.7 C 68 % 8.86 C
17 29-07-2009 03:12:22 14.6 C 69 % 8.98 C
18 29-07-2009 03:24:22 14.3 C 70 % 8.91 C
19 29-07-2009 03:36:22 14.1 C 70 % 8.72 C
20 29-07-2009 03:48:22 13.9 C 71 % 8.73 C
21 29-07-2009 04:00:22 14 C 71 % 8.83 C
22 29-07-2009 04:12:22 13.7 C 73 % 8.95 C
23 29-07-2009 04:24:22 13.6 C 73 % 8.86 C
24 29-07-2009 04:36:22 13.5 C 73 % 8.76 C
25 29-07-2009 04:48:22 13.2 C 75 % 8.87 C
Sensor: Nr:Datum:Temp:Feuchte:Taupunkt:
Aussen-T/F 26 29-07-2009 05:00:22 13 C 75 % 8.68 C
27 29-07-2009 05:12:23 12.9 C 76 % 8.78 C
28 29-07-2009 05:24:23 12.9 C 76 % 8.78 C
29 29-07-2009 05:36:23 12.8 C 76 % 8.68 C
30 29-07-2009 05:48:23 12.6 C 76 % 8.49 C
31 29-07-2009 06:00:23 12.6 C 76 % 8.49 C
32 29-07-2009 06:12:23 12.5 C 77 % 8.58 C
33 29-07-2009 06:24:23 12.5 C 77 % 8.58 C
34 29-07-2009 06:36:23 12.6 C 78 % 8.87 C
35 29-07-2009 06:48:23 12.6 C 78 % 8.87 C
36 29-07-2009 07:00:21 12.7 C 78 % 8.97 C
37 29-07-2009 07:12:21 12.8 C 78 % 9.06 C
38 29-07-2009 07:24:21 12.7 C 79 % 9.16 C
39 29-07-2009 07:36:21 12.5 C 80 % 9.15 C
40 29-07-2009 07:48:21 12.7 C 80 % 9.34 C
41 29-07-2009 08:00:21 13.1 C 79 % 9.54 C
42 29-07-2009 08:12:21 13.2 C 78 % 9.45 C
43 29-07-2009 08:24:20 13.4 C 78 % 9.65 C
44 29-07-2009 08:36:21 13.8 C 76 % 9.65 C
45 29-07-2009 08:48:20 14.2 C 74 % 9.64 C
46 29-07-2009 09:00:20 14.5 C 74 % 9.93 C
47 29-07-2009 09:12:20 15.4 C 69 % 9.75 C
48 29-07-2009 09:24:20 16 C 67 % 9.88 C
49 29-07-2009 09:36:20 16.8 C 66 % 10.42 C
50 29-07-2009 09:48:20 17.4 C 62 % 10.05 C
Sensor: Nr:Datum:Temp:Feuchte:Taupunkt:
Aussen-T/F 51 29-07-2009 10:00:20 18.4 C 60 % 10.5 C
52 29-07-2009 10:12:20 19.2 C 57 % 10.48 C
53 29-07-2009 10:24:20 20.1 C 54 % 10.51 C
54 29-07-2009 10:36:19 20.8 C 53 % 10.88 C
55 29-07-2009 10:48:20 21.6 C 46 % 9.49 C
56 29-07-2009 11:00:19 22.5 C 43 % 9.31 C
57 29-07-2009 11:12:19 22.9 C 42 % 9.32 C
58 29-07-2009 11:24:19 24.1 C 36 % 8.11 C
59 29-07-2009 11:36:19 24.8 C 34 % 7.88 C
60 29-07-2009 11:48:19 24.9 C 36 % 8.81 C
61 29-07-2009 12:00:19 25.7 C 33 % 8.23 C
62 29-07-2009 12:12:19 25.9 C 32 % 7.95 C
63 29-07-2009 12:24:18 26.7 C 31 % 8.18 C
64 29-07-2009 12:36:19 27.2 C 30 % 8.13 C
65 29-07-2009 12:48:18 28.1 C 29 % 8.4 C
66 29-07-2009 13:00:18 28.2 C 25 % 6.32 C
67 29-07-2009 13:12:18 28.5 C 25 % 6.57 C
68 29-07-2009 13:24:18 30 C 22 % 5.97 C
69 29-07-2009 13:36:18 30.4 C 21 % 5.63 C
70 29-07-2009 13:48:17 29.8 C 22 % 5.81 C
71 29-07-2009 14:00:18 29.8 C 23 % 6.45 C
72 29-07-2009 14:12:18 30 C 22 % 5.97 C
73 29-07-2009 14:24:17 30 C 25 % 7.83 C
74 29-07-2009 14:36:17 30.3 C 25 % 8.09 C
75 29-07-2009 14:48:18 30.2 C 22 % 6.14 C
Sensor: Nr:Datum:Temp:Feuchte:Taupunkt:
Aussen-T/F 76 29-07-2009 15:00:17 30.3 C 24 % 7.49 C
77 29-07-2009 15:12:17 30.6 C 23 % 7.12 C
78 29-07-2009 15:24:17 30.8 C 22 % 6.64 C
79 29-07-2009 15:36:16 30.7 C 21 % 5.88 C
80 29-07-2009 15:48:17 31 C 22 % 6.8 C
81 29-07-2009 16:00:16 31.3 C 21 % 6.37 C
82 29-07-2009 16:12:16 31.4 C 21 % 6.46 C
83 29-07-2009 16:24:16 31.4 C 21 % 6.46 C
84 29-07-2009 16:36:16 31.6 C 21 % 6.62 C
85 29-07-2009 16:48:16 31.3 C 22 % 7.05 C
86 29-07-2009 17:00:15 31.7 C 22 % 7.38 C
87 29-07-2009 17:12:15 31.7 C 22 % 7.38 C
88 29-07-2009 17:24:16 31.3 C 24 % 8.32 C
89 29-07-2009 17:36:16 31.8 C 20 % 6.08 C
90 29-07-2009 17:48:15 32.2 C 21 % 7.11 C
91 29-07-2009 18:00:16 31.5 C 23 % 7.87 C
92 29-07-2009 18:12:16 31.3 C 21 % 6.37 C
93 29-07-2009 18:24:15 31.5 C 21 % 6.54 C
94 29-07-2009 18:36:15 31.1 C 25 % 8.76 C
95 29-07-2009 18:48:15 30.7 C 21 % 5.88 C
96 29-07-2009 19:00:15 30 C 26 % 8.41 C
97 29-07-2009 19:12:15 29.5 C 29 % 9.6 C
98 29-07-2009 19:24:14 29.4 C 30 % 10.02 C
99 29-07-2009 19:36:14 28.6 C 31 % 9.82 C
100 29-07-2009 19:48:14 27.6 C 35 % 10.77 C
Sensor: Nr:Datum:Temp:Feuchte:Taupunkt:
Aussen-T/F 101 29-07-2009 20:00:14 26.9 C 37 % 10.99 C
102 29-07-2009 20:12:14 26.2 C 37 % 10.37 C
103 29-07-2009 20:24:14 25.7 C 38 % 10.32 C
104 29-07-2009 20:36:14 25.2 C 38 % 9.88 C
105 29-07-2009 20:48:14 24.6 C 39 % 9.73 C
106 29-07-2009 21:00:13 24.5 C 40 % 10.02 C
107 29-07-2009 21:12:13 24.1 C 39 % 9.29 C
108 29-07-2009 21:24:14 23.7 C 42 % 10.03 C
109 29-07-2009 21:36:13 23.4 C 42 % 9.77 C
110 29-07-2009 21:48:13 23.4 C 42 % 9.77 C
111 29-07-2009 22:00:13 23.3 C 43 % 10.03 C
112 29-07-2009 22:12:14 23.2 C 43 % 9.94 C
113 29-07-2009 22:24:12 23 C 43 % 9.76 C
114 29-07-2009 22:37:13 23 C 43 % 9.76 C
115 29-07-2009 22:49:13 22.7 C 45 % 10.16 C
116 29-07-2009 23:01:13 22.7 C 43 % 9.49 C
117 29-07-2009 23:13:13 22.4 C 45 % 9.89 C
118 29-07-2009 23:25:13 22.3 C 46 % 10.13 C
119 29-07-2009 23:37:13 22.4 C 46 % 10.22 C
120 29-07-2009 23:49:13 22.3 C 45 % 9.8 C

Legende:
   Min
   Max


Maximal/Minimal-Werte vom 29.07.2009 - 29.07.2009

Sensor Min Max Avg
Temp
(Aussen-T/F)
12.5 °C
29-07-2009  06:12:23
32.2 °C
29-07-2009  17:48:15
21.78 °C
Feuchte
(Aussen-T/F)
20 %
29-07-2009  17:36:16
80 %
29-07-2009  07:36:21
48.02 %
Taupunkt
(Aussen-T/F)
5.63 C
29-07-2009  13:36:18
10.99 C
29-07-2009  20:00:14
8.49 C

Die Daten stammen von einer Davis Vantage Pro 2 Wetter-Station und werden unter Linux mit der Software wview2wettercgi und aufbereitet. Alle Angaben erfolgen ohne Gewähr für ihre Vollständigkeit oder Richtigkeit.
Kontakt: Rainer Krienke krienke@uni-koblenz.de . Meine Webseiten an der Uni Koblenz oder privat.
Version: $Revision: 0.78 $